sensor_id;sensor_type;location;lat;lon;timestamp;pressure;altitude;pressure_sealevel;temperature;humidity
23589;BME280;11972;48.078;11.876;2023-06-14T00:03:58;94876.63;;;10.14;100.00
23589;BME280;11972;48.078;11.876;2023-06-14T00:07:59;94872.72;;;10.10;100.00
23589;BME280;11972;48.078;11.876;2023-06-14T00:12:00;94876.78;;;10.06;100.00
23589;BME280;11972;48.078;11.876;2023-06-14T00:16:01;94880.81;;;10.02;100.00
23589;BME280;11972;48.078;11.876;2023-06-14T00:20:03;94883.22;;;9.97;100.00
23589;BME280;11972;48.078;11.876;2023-06-14T00:24:07;94882.59;;;9.94;100.00
23589;BME280;11972;48.078;11.876;2023-06-14T00:28:07;94871.16;;;9.87;100.00
23589;BME280;11972;48.078;11.876;2023-06-14T00:32:08;94873.41;;;9.84;100.00
23589;BME280;11972;48.078;11.876;2023-06-14T00:36:08;94869.69;;;9.78;100.00
23589;BME280;11972;48.078;11.876;2023-06-14T00:40:09;94868.66;;;9.73;100.00
23589;BME280;11972;48.078;11.876;2023-06-14T00:44:09;94866.97;;;9.65;100.00
23589;BME280;11972;48.078;11.876;2023-06-14T00:48:10;94868.16;;;9.62;100.00
23589;BME280;11972;48.078;11.876;2023-06-14T00:52:11;94866.91;;;9.58;100.00
23589;BME280;11972;48.078;11.876;2023-06-14T00:56:13;94862.44;;;9.52;100.00
23589;BME280;11972;48.078;11.876;2023-06-14T01:00:15;94872.91;;;9.45;100.00
23589;BME280;11972;48.078;11.876;2023-06-14T01:04:15;94868.41;;;9.39;100.00
23589;BME280;11972;48.078;11.876;2023-06-14T01:08:29;94869.16;;;9.33;100.00
23589;BME280;11972;48.078;11.876;2023-06-14T01:13:05;94870.31;;;9.24;100.00
23589;BME280;11972;48.078;11.876;2023-06-14T01:17:08;94875.34;;;9.19;100.00
23589;BME280;11972;48.078;11.876;2023-06-14T01:21:25;94866.19;;;9.15;100.00
23589;BME280;11972;48.078;11.876;2023-06-14T01:25:26;94857.03;;;9.11;100.00
23589;BME280;11972;48.078;11.876;2023-06-14T01:29:26;94859.00;;;9.09;100.00
23589;BME280;11972;48.078;11.876;2023-06-14T01:33:33;94856.78;;;9.06;100.00
23589;BME280;11972;48.078;11.876;2023-06-14T01:37:34;94856.13;;;9.04;100.00
23589;BME280;11972;48.078;11.876;2023-06-14T01:41:35;94861.53;;;8.95;100.00
23589;BME280;11972;48.078;11.876;2023-06-14T01:45:36;94858.66;;;8.90;100.00
23589;BME280;11972;48.078;11.876;2023-06-14T01:49:38;94856.13;;;8.82;100.00
23589;BME280;11972;48.078;11.876;2023-06-14T01:53:38;94861.34;;;8.76;100.00
23589;BME280;11972;48.078;11.876;2023-06-14T01:57:39;94860.06;;;8.72;100.00
23589;BME280;11972;48.078;11.876;2023-06-14T02:01:39;94861.66;;;8.66;100.00
23589;BME280;11972;48.078;11.876;2023-06-14T02:05:39;94864.19;;;8.59;100.00
23589;BME280;11972;48.078;11.876;2023-06-14T02:09:40;94866.66;;;8.61;100.00
23589;BME280;11972;48.078;11.876;2023-06-14T02:13:41;94855.84;;;8.56;100.00
23589;BME280;11972;48.078;11.876;2023-06-14T02:17:41;94864.31;;;8.51;100.00
23589;BME280;11972;48.078;11.876;2023-06-14T02:21:42;94858.53;;;8.41;100.00
23589;BME280;11972;48.078;11.876;2023-06-14T02:25:43;94859.72;;;8.38;100.00
23589;BME280;11972;48.078;11.876;2023-06-14T02:29:45;94850.84;;;8.39;100.00
23589;BME280;11972;48.078;11.876;2023-06-14T02:33:45;94853.47;;;8.39;100.00
23589;BME280;11972;48.078;11.876;2023-06-14T02:37:45;94854.44;;;8.38;100.00
23589;BME280;11972;48.078;11.876;2023-06-14T02:41:46;94848.69;;;8.35;100.00
23589;BME280;11972;48.078;11.876;2023-06-14T02:45:46;94857.16;;;8.30;100.00
23589;BME280;11972;48.078;11.876;2023-06-14T02:49:47;94854.25;;;8.25;100.00
23589;BME280;11972;48.078;11.876;2023-06-14T02:53:47;94857.91;;;8.24;100.00
23589;BME280;11972;48.078;11.876;2023-06-14T02:57:47;94861.25;;;8.18;100.00
23589;BME280;11972;48.078;11.876;2023-06-14T03:01:48;94855.28;;;8.09;100.00
23589;BME280;11972;48.078;11.876;2023-06-14T03:05:49;94860.09;;;8.06;100.00
23589;BME280;11972;48.078;11.876;2023-06-14T03:09:49;94865.34;;;8.06;100.00
23589;BME280;11972;48.078;11.876;2023-06-14T03:13:51;94857.91;;;8.09;100.00
23589;BME280;11972;48.078;11.876;2023-06-14T03:17:51;94869.44;;;8.08;100.00
23589;BME280;11972;48.078;11.876;2023-06-14T03:21:53;94872.25;;;8.07;100.00
23589;BME280;11972;48.078;11.876;2023-06-14T03:25:57;94879.50;;;8.05;100.00
23589;BME280;11972;48.078;11.876;2023-06-14T03:29:57;94887.03;;;7.93;100.00
23589;BME280;11972;48.078;11.876;2023-06-14T03:33:58;94883.47;;;7.71;100.00
23589;BME280;11972;48.078;11.876;2023-06-14T03:37:58;94879.94;;;7.64;100.00
23589;BME280;11972;48.078;11.876;2023-06-14T03:41:59;94892.06;;;7.65;100.00
23589;BME280;11972;48.078;11.876;2023-06-14T03:45:59;94885.84;;;7.66;100.00
23589;BME280;11972;48.078;11.876;2023-06-14T03:50:00;94887.00;;;7.63;100.00
23589;BME280;11972;48.078;11.876;2023-06-14T03:54:01;94894.00;;;7.71;100.00
23589;BME280;11972;48.078;11.876;2023-06-14T03:58:01;94900.53;;;7.75;100.00
23589;BME280;11972;48.078;11.876;2023-06-14T04:02:02;94909.50;;;7.81;100.00
23589;BME280;11972;48.078;11.876;2023-06-14T04:06:04;94929.38;;;7.83;100.00
23589;BME280;11972;48.078;11.876;2023-06-14T04:10:07;94922.09;;;7.85;100.00
23589;BME280;11972;48.078;11.876;2023-06-14T04:14:08;94926.56;;;8.00;100.00
23589;BME280;11972;48.078;11.876;2023-06-14T04:18:08;94923.84;;;8.23;100.00
23589;BME280;11972;48.078;11.876;2023-06-14T04:22:08;94932.66;;;8.44;100.00
23589;BME280;11972;48.078;11.876;2023-06-14T04:26:11;94931.91;;;8.51;100.00
23589;BME280;11972;48.078;11.876;2023-06-14T04:30:11;94932.19;;;8.56;100.00
23589;BME280;11972;48.078;11.876;2023-06-14T04:34:13;94941.53;;;8.73;100.00
23589;BME280;11972;48.078;11.876;2023-06-14T04:38:16;94935.72;;;8.99;100.00
23589;BME280;11972;48.078;11.876;2023-06-14T04:42:16;94944.97;;;9.31;100.00
23589;BME280;11972;48.078;11.876;2023-06-14T04:46:16;94932.66;;;9.60;100.00
23589;BME280;11972;48.078;11.876;2023-06-14T04:50:17;94940.38;;;9.89;100.00
23589;BME280;11972;48.078;11.876;2023-06-14T04:54:18;94945.69;;;10.24;100.00
23589;BME280;11972;48.078;11.876;2023-06-14T04:58:18;94946.16;;;10.69;100.00
23589;BME280;11972;48.078;11.876;2023-06-14T05:02:19;94950.56;;;11.03;100.00
23589;BME280;11972;48.078;11.876;2023-06-14T05:06:19;94944.13;;;11.32;100.00
23589;BME280;11972;48.078;11.876;2023-06-14T05:10:20;94944.94;;;11.59;100.00
23589;BME280;11972;48.078;11.876;2023-06-14T05:14:20;94943.78;;;11.88;100.00
23589;BME280;11972;48.078;11.876;2023-06-14T05:18:22;94943.38;;;12.18;100.00
23589;BME280;11972;48.078;11.876;2023-06-14T05:22:22;94940.25;;;12.48;100.00
23589;BME280;11972;48.078;11.876;2023-06-14T05:26:23;94944.03;;;12.72;100.00
23589;BME280;11972;48.078;11.876;2023-06-14T05:30:28;94942.31;;;12.90;100.00
23589;BME280;11972;48.078;11.876;2023-06-14T05:34:30;94956.47;;;13.16;100.00
23589;BME280;11972;48.078;11.876;2023-06-14T05:38:31;94950.69;;;13.39;100.00
23589;BME280;11972;48.078;11.876;2023-06-14T05:42:32;94963.56;;;13.67;100.00
23589;BME280;11972;48.078;11.876;2023-06-14T05:46:32;94966.69;;;13.82;100.00
23589;BME280;11972;48.078;11.876;2023-06-14T05:50:33;94966.34;;;14.04;100.00
23589;BME280;11972;48.078;11.876;2023-06-14T05:54:33;94958.00;;;14.25;100.00
23589;BME280;11972;48.078;11.876;2023-06-14T05:58:34;94952.44;;;14.52;100.00
23589;BME280;11972;48.078;11.876;2023-06-14T06:02:34;94958.59;;;14.71;100.00
23589;BME280;11972;48.078;11.876;2023-06-14T06:06:34;94952.31;;;14.83;100.00
23589;BME280;11972;48.078;11.876;2023-06-14T06:10:35;94958.78;;;15.06;100.00
23589;BME280;11972;48.078;11.876;2023-06-14T06:14:36;94962.53;;;15.17;100.00
23589;BME280;11972;48.078;11.876;2023-06-14T06:18:36;94976.47;;;15.30;100.00
23589;BME280;11972;48.078;11.876;2023-06-14T06:22:37;94976.81;;;15.52;100.00
23589;BME280;11972;48.078;11.876;2023-06-14T06:26:37;94981.16;;;15.65;100.00
23589;BME280;11972;48.078;11.876;2023-06-14T06:30:39;94979.47;;;15.82;100.00
23589;BME280;11972;48.078;11.876;2023-06-14T06:34:40;94986.81;;;15.99;100.00
23589;BME280;11972;48.078;11.876;2023-06-14T06:38:40;94990.56;;;16.21;100.00
23589;BME280;11972;48.078;11.876;2023-06-14T06:42:41;94988.69;;;16.33;100.00
23589;BME280;11972;48.078;11.876;2023-06-14T06:46:41;94994.28;;;16.44;100.00
23589;BME280;11972;48.078;11.876;2023-06-14T06:50:42;94993.13;;;16.63;100.00
23589;BME280;11972;48.078;11.876;2023-06-14T06:54:43;95001.25;;;16.92;100.00
23589;BME280;11972;48.078;11.876;2023-06-14T06:58:43;95009.09;;;17.10;100.00
23589;BME280;11972;48.078;11.876;2023-06-14T07:02:43;95001.88;;;17.10;100.00
23589;BME280;11972;48.078;11.876;2023-06-14T07:06:46;95015.16;;;17.46;100.00
23589;BME280;11972;48.078;11.876;2023-06-14T07:10:47;95008.38;;;17.55;100.00
23589;BME280;11972;48.078;11.876;2023-06-14T07:14:47;95008.63;;;17.53;100.00
23589;BME280;11972;48.078;11.876;2023-06-14T07:18:47;95007.28;;;17.79;100.00
23589;BME280;11972;48.078;11.876;2023-06-14T07:22:48;95012.31;;;17.93;100.00
23589;BME280;11972;48.078;11.876;2023-06-14T07:26:48;95017.34;;;18.06;100.00
23589;BME280;11972;48.078;11.876;2023-06-14T07:30:49;95017.34;;;18.06;100.00
23589;BME280;11972;48.078;11.876;2023-06-14T07:34:49;95028.94;;;18.12;100.00
23589;BME280;11972;48.078;11.876;2023-06-14T07:38:49;95033.09;;;18.36;100.00
23589;BME280;11972;48.078;11.876;2023-06-14T07:42:50;95030.25;;;18.59;100.00
23589;BME280;11972;48.078;11.876;2023-06-14T07:46:50;95029.34;;;18.88;100.00
23589;BME280;11972;48.078;11.876;2023-06-14T07:50:51;95023.31;;;19.14;100.00
23589;BME280;11972;48.078;11.876;2023-06-14T07:54:51;95024.44;;;19.40;100.00
23589;BME280;11972;48.078;11.876;2023-06-14T07:58:51;95025.56;;;19.66;100.00
23589;BME280;11972;48.078;11.876;2023-06-14T08:02:51;95030.31;;;19.59;100.00
23589;BME280;11972;48.078;11.876;2023-06-14T08:07:01;95026.41;;;19.50;100.00
23589;BME280;11972;48.078;11.876;2023-06-14T08:11:02;95023.97;;;19.65;100.00
23589;BME280;11972;48.078;11.876;2023-06-14T08:15:02;95034.19;;;19.95;100.00
23589;BME280;11972;48.078;11.876;2023-06-14T08:19:03;95025.34;;;19.95;100.00
23589;BME280;11972;48.078;11.876;2023-06-14T08:23:03;95031.31;;;20.02;100.00
23589;BME280;11972;48.078;11.876;2023-06-14T08:27:04;95039.56;;;20.22;100.00
23589;BME280;11972;48.078;11.876;2023-06-14T08:31:04;95031.66;;;20.38;100.00
23589;BME280;11972;48.078;11.876;2023-06-14T08:35:05;95036.97;;;20.65;100.00
23589;BME280;11972;48.078;11.876;2023-06-14T08:39:07;95040.09;;;20.84;100.00
23589;BME280;11972;48.078;11.876;2023-06-14T08:43:09;95047.81;;;20.75;100.00
23589;BME280;11972;48.078;11.876;2023-06-14T08:47:10;95055.59;;;20.76;100.00
23589;BME280;11972;48.078;11.876;2023-06-14T08:51:11;95050.19;;;20.71;97.37
23589;BME280;11972;48.078;11.876;2023-06-14T08:55:13;95052.94;;;20.81;97.26
23589;BME280;11972;48.078;11.876;2023-06-14T08:59:15;95056.25;;;20.94;98.31
23589;BME280;11972;48.078;11.876;2023-06-14T09:03:15;95055.81;;;21.07;98.61
23589;BME280;11972;48.078;11.876;2023-06-14T09:07:17;95051.53;;;21.11;96.90
23589;BME280;11972;48.078;11.876;2023-06-14T09:11:18;95051.88;;;21.25;96.69
23589;BME280;11972;48.078;11.876;2023-06-14T09:15:19;95054.16;;;21.06;91.81
23589;BME280;11972;48.078;11.876;2023-06-14T09:19:24;95060.09;;;21.03;94.15
23589;BME280;11972;48.078;11.876;2023-06-14T09:23:24;95061.81;;;21.24;93.35
23589;BME280;11972;48.078;11.876;2023-06-14T09:27:26;95055.19;;;21.37;92.08
23589;BME280;11972;48.078;11.876;2023-06-14T09:31:26;95058.66;;;21.33;86.70
23589;BME280;11972;48.078;11.876;2023-06-14T09:35:32;95052.81;;;21.46;88.30
23589;BME280;11972;48.078;11.876;2023-06-14T09:39:32;95050.28;;;21.82;87.82
23589;BME280;11972;48.078;11.876;2023-06-14T09:43:34;95061.63;;;21.99;86.23
23589;BME280;11972;48.078;11.876;2023-06-14T09:47:34;95067.06;;;22.19;83.44
23589;BME280;11972;48.078;11.876;2023-06-14T09:51:36;95059.00;;;22.29;80.65
23589;BME280;11972;48.078;11.876;2023-06-14T09:55:42;95064.97;;;22.52;79.75
23589;BME280;11972;48.078;11.876;2023-06-14T09:59:44;95057.97;;;22.61;82.01
23589;BME280;11972;48.078;11.876;2023-06-14T10:03:45;95069.28;;;22.68;81.78
23589;BME280;11972;48.078;11.876;2023-06-14T10:07:56;95059.06;;;22.75;77.46
23589;BME280;11972;48.078;11.876;2023-06-14T10:12:01;95057.97;;;22.92;79.83
23589;BME280;11972;48.078;11.876;2023-06-14T10:16:05;95055.28;;;22.92;76.27
23589;BME280;11972;48.078;11.876;2023-06-14T10:20:19;95056.34;;;22.50;69.18
23589;BME280;11972;48.078;11.876;2023-06-14T10:24:29;95063.34;;;22.87;74.10
23589;BME280;11972;48.078;11.876;2023-06-14T10:28:30;95058.78;;;23.13;69.37
23589;BME280;11972;48.078;11.876;2023-06-14T10:32:31;95053.81;;;23.50;66.13
23589;BME280;11972;48.078;11.876;2023-06-14T10:36:31;95059.09;;;23.91;64.98
23589;BME280;11972;48.078;11.876;2023-06-14T10:40:35;95055.13;;;24.23;63.17
23589;BME280;11972;48.078;11.876;2023-06-14T10:44:42;95043.97;;;24.45;56.31
23589;BME280;11972;48.078;11.876;2023-06-14T10:48:43;95050.31;;;24.15;53.93
23589;BME280;11972;48.078;11.876;2023-06-14T10:52:44;95043.81;;;24.60;55.60
23589;BME280;11972;48.078;11.876;2023-06-14T10:56:52;95035.81;;;25.13;53.90
23589;BME280;11972;48.078;11.876;2023-06-14T11:00:52;95034.41;;;25.69;51.90
23589;BME280;11972;48.078;11.876;2023-06-14T11:04:53;95035.66;;;26.19;50.13
23589;BME280;11972;48.078;11.876;2023-06-14T11:13:32;95036.84;;;26.13;46.75
23589;BME280;11972;48.078;11.876;2023-06-14T11:17:33;95027.16;;;26.07;47.57
23589;BME280;11972;48.078;11.876;2023-06-14T11:21:33;95023.56;;;26.12;46.78
23589;BME280;11972;48.078;11.876;2023-06-14T11:25:34;95023.84;;;25.67;46.63
23589;BME280;11972;48.078;11.876;2023-06-14T11:29:34;95030.09;;;25.44;46.97
23589;BME280;11972;48.078;11.876;2023-06-14T11:33:35;95026.88;;;25.42;49.61
23589;BME280;11972;48.078;11.876;2023-06-14T11:37:36;95036.78;;;25.28;46.64
23589;BME280;11972;48.078;11.876;2023-06-14T11:41:42;95034.56;;;24.32;45.68
23589;BME280;11972;48.078;11.876;2023-06-14T11:45:43;95021.63;;;24.97;50.08
23589;BME280;11972;48.078;11.876;2023-06-14T11:49:43;95018.53;;;25.14;47.28
23589;BME280;11972;48.078;11.876;2023-06-14T11:53:43;95026.34;;;24.08;46.47
23589;BME280;11972;48.078;11.876;2023-06-14T11:57:46;95014.75;;;23.48;47.63
23589;BME280;11972;48.078;11.876;2023-06-14T12:01:47;95021.31;;;23.16;49.24
23589;BME280;11972;48.078;11.876;2023-06-14T12:05:48;95026.19;;;22.99;51.75
23589;BME280;11972;48.078;11.876;2023-06-14T12:13:56;95031.06;;;22.51;53.60
23589;BME280;11972;48.078;11.876;2023-06-14T12:17:57;95026.19;;;22.27;52.83
23589;BME280;11972;48.078;11.876;2023-06-14T12:22:01;95024.06;;;22.45;55.76
23589;BME280;11972;48.078;11.876;2023-06-14T12:26:04;95013.81;;;22.77;54.96
23589;BME280;11972;48.078;11.876;2023-06-14T12:30:05;95015.41;;;23.09;52.99
23589;BME280;11972;48.078;11.876;2023-06-14T12:34:07;95028.03;;;23.19;54.13
23589;BME280;11972;48.078;11.876;2023-06-14T12:38:08;95025.06;;;23.25;54.54
23589;BME280;11972;48.078;11.876;2023-06-14T12:42:08;95021.28;;;23.26;53.68
23589;BME280;11972;48.078;11.876;2023-06-14T12:46:09;95024.22;;;23.35;54.62
23589;BME280;11972;48.078;11.876;2023-06-14T12:50:10;95021.59;;;23.90;55.99
23589;BME280;11972;48.078;11.876;2023-06-14T12:54:10;95018.28;;;24.82;54.70
23589;BME280;11972;48.078;11.876;2023-06-14T12:58:10;95021.13;;;24.95;49.14
23589;BME280;11972;48.078;11.876;2023-06-14T13:02:17;95016.94;;;25.08;49.35
23589;BME280;11972;48.078;11.876;2023-06-14T13:06:18;95021.59;;;24.73;46.58
23589;BME280;11972;48.078;11.876;2023-06-14T13:10:18;95018.84;;;24.79;48.04
23589;BME280;11972;48.078;11.876;2023-06-14T13:14:18;95025.72;;;24.21;46.10
23589;BME280;11972;48.078;11.876;2023-06-14T13:18:19;95036.44;;;23.02;47.00
23589;BME280;11972;48.078;11.876;2023-06-14T13:22:19;95035.09;;;22.94;50.62
23589;BME280;11972;48.078;11.876;2023-06-14T13:26:20;95031.97;;;23.62;49.99
23589;BME280;11972;48.078;11.876;2023-06-14T13:30:20;95029.88;;;24.82;50.74
23589;BME280;11972;48.078;11.876;2023-06-14T13:34:20;95017.47;;;24.81;43.26
23589;BME280;11972;48.078;11.876;2023-06-14T13:38:21;95008.28;;;24.82;43.35
23589;BME280;11972;48.078;11.876;2023-06-14T13:42:21;94999.75;;;25.95;44.79
23589;BME280;11972;48.078;11.876;2023-06-14T13:46:21;94993.19;;;27.59;44.44
23589;BME280;11972;48.078;11.876;2023-06-14T13:50:22;94998.63;;;28.37;41.51
23589;BME280;11972;48.078;11.876;2023-06-14T13:54:22;95003.38;;;28.17;39.34
23589;BME280;11972;48.078;11.876;2023-06-14T13:58:22;95005.38;;;27.76;38.91
23589;BME280;11972;48.078;11.876;2023-06-14T14:02:24;95008.06;;;27.20;39.17
23589;BME280;11972;48.078;11.876;2023-06-14T14:06:24;95015.88;;;26.76;39.07
23589;BME280;11972;48.078;11.876;2023-06-14T14:10:24;95010.56;;;27.17;40.06
23589;BME280;11972;48.078;11.876;2023-06-14T14:14:25;95005.47;;;27.43;38.27
23589;BME280;11972;48.078;11.876;2023-06-14T14:18:25;94983.31;;;28.41;37.96
23589;BME280;11972;48.078;11.876;2023-06-14T14:22:26;94984.47;;;29.25;36.55
23589;BME280;11972;48.078;11.876;2023-06-14T14:26:26;94984.72;;;29.94;35.19
23589;BME280;11972;48.078;11.876;2023-06-14T14:30:26;94990.38;;;30.24;34.63
23589;BME280;11972;48.078;11.876;2023-06-14T14:34:27;94999.13;;;29.06;32.48
23589;BME280;11972;48.078;11.876;2023-06-14T14:38:27;94996.75;;;28.91;33.26
23589;BME280;11972;48.078;11.876;2023-06-14T14:42:27;95000.75;;;27.62;33.75
23589;BME280;11972;48.078;11.876;2023-06-14T14:46:28;95011.59;;;25.80;34.12
23589;BME280;11972;48.078;11.876;2023-06-14T14:50:29;95013.72;;;25.06;36.68
23589;BME280;11972;48.078;11.876;2023-06-14T14:54:29;95009.84;;;25.17;37.42
23589;BME280;11972;48.078;11.876;2023-06-14T14:58:29;95008.94;;;24.98;37.50
23589;BME280;11972;48.078;11.876;2023-06-14T15:02:30;95002.75;;;25.69;37.50
23589;BME280;11972;48.078;11.876;2023-06-14T15:06:30;94992.09;;;26.72;37.28
23589;BME280;11972;48.078;11.876;2023-06-14T15:10:30;94998.66;;;28.09;35.61
23589;BME280;11972;48.078;11.876;2023-06-14T15:14:31;95002.22;;;28.46;34.89
23589;BME280;11972;48.078;11.876;2023-06-14T15:18:31;94989.00;;;29.78;33.41
23589;BME280;11972;48.078;11.876;2023-06-14T15:22:31;95002.47;;;29.43;32.34
23589;BME280;11972;48.078;11.876;2023-06-14T15:26:50;94999.31;;;27.24;34.26
23589;BME280;11972;48.078;11.876;2023-06-14T15:30:51;95012.41;;;27.77;35.44
23589;BME280;11972;48.078;11.876;2023-06-14T15:34:51;95009.69;;;27.49;35.68
23589;BME280;11972;48.078;11.876;2023-06-14T15:38:51;95013.25;;;28.13;36.46
23589;BME280;11972;48.078;11.876;2023-06-14T15:42:52;94997.38;;;29.99;35.09
23589;BME280;11972;48.078;11.876;2023-06-14T15:46:52;94998.38;;;28.11;34.73
23589;BME280;11972;48.078;11.876;2023-06-14T15:50:53;95009.78;;;26.51;35.79
23589;BME280;11972;48.078;11.876;2023-06-14T15:54:53;95002.44;;;26.33;36.81
23589;BME280;11972;48.078;11.876;2023-06-14T15:58:53;95014.94;;;26.29;39.52
23589;BME280;11972;48.078;11.876;2023-06-14T16:02:53;95013.59;;;26.50;39.90
23589;BME280;11972;48.078;11.876;2023-06-14T16:06:54;95021.84;;;26.59;39.68
23589;BME280;11972;48.078;11.876;2023-06-14T16:10:54;95016.91;;;25.61;39.76
23589;BME280;11972;48.078;11.876;2023-06-14T16:14:55;95014.94;;;25.91;42.54
23589;BME280;11972;48.078;11.876;2023-06-14T16:18:55;95018.81;;;26.93;42.12
23589;BME280;11972;48.078;11.876;2023-06-14T16:22:56;95019.41;;;29.09;40.06
23589;BME280;11972;48.078;11.876;2023-06-14T16:26:56;95022.44;;;28.26;37.22
23589;BME280;11972;48.078;11.876;2023-06-14T16:30:56;95028.63;;;26.56;37.77
23589;BME280;11972;48.078;11.876;2023-06-14T16:34:56;95030.81;;;25.31;39.93
23589;BME280;11972;48.078;11.876;2023-06-14T16:38:57;95037.69;;;25.42;42.76
23589;BME280;11972;48.078;11.876;2023-06-14T16:42:58;95032.88;;;27.55;42.65
23589;BME280;11972;48.078;11.876;2023-06-14T16:46:58;95035.09;;;27.53;38.35
23589;BME280;11972;48.078;11.876;2023-06-14T16:51:00;95032.47;;;28.76;37.96
23589;BME280;11972;48.078;11.876;2023-06-14T16:55:01;95036.09;;;29.16;36.62
23589;BME280;11972;48.078;11.876;2023-06-14T16:59:02;95041.09;;;29.23;34.87
23589;BME280;11972;48.078;11.876;2023-06-14T17:03:02;95034.44;;;29.60;34.96
23589;BME280;11972;48.078;11.876;2023-06-14T17:07:04;95038.66;;;28.90;35.03
23589;BME280;11972;48.078;11.876;2023-06-14T17:11:05;95049.03;;;30.30;35.71
23589;BME280;11972;48.078;11.876;2023-06-14T17:15:07;95054.03;;;30.45;33.68
23589;BME280;11972;48.078;11.876;2023-06-14T17:19:07;95067.38;;;29.58;34.34
23589;BME280;11972;48.078;11.876;2023-06-14T17:23:08;95062.38;;;28.26;33.21
23589;BME280;11972;48.078;11.876;2023-06-14T17:27:08;95074.69;;;27.40;35.20
23589;BME280;11972;48.078;11.876;2023-06-14T17:31:09;95073.81;;;26.93;36.29
23589;BME280;11972;48.078;11.876;2023-06-14T17:35:10;95084.00;;;26.50;36.75
23589;BME280;11972;48.078;11.876;2023-06-14T17:39:13;95086.16;;;26.48;37.44
23589;BME280;11972;48.078;11.876;2023-06-14T17:43:13;95095.91;;;26.06;38.51
23589;BME280;11972;48.078;11.876;2023-06-14T17:47:14;95096.91;;;26.34;40.75
23589;BME280;11972;48.078;11.876;2023-06-14T17:51:14;95107.84;;;26.05;39.51
23589;BME280;11972;48.078;11.876;2023-06-14T17:55:15;95104.81;;;25.00;40.82
23589;BME280;11972;48.078;11.876;2023-06-14T17:59:16;95110.97;;;24.72;42.68
23589;BME280;11972;48.078;11.876;2023-06-14T18:03:19;95112.75;;;24.53;43.79
23589;BME280;11972;48.078;11.876;2023-06-14T18:07:19;95125.59;;;24.16;45.39
23589;BME280;11972;48.078;11.876;2023-06-14T18:11:20;95114.97;;;24.40;46.82
23589;BME280;11972;48.078;11.876;2023-06-14T18:15:20;95115.53;;;24.76;46.91
23589;BME280;11972;48.078;11.876;2023-06-14T18:19:21;95121.19;;;24.41;46.93
23589;BME280;11972;48.078;11.876;2023-06-14T18:23:21;95118.31;;;24.66;47.77
23589;BME280;11972;48.078;11.876;2023-06-14T18:27:21;95126.31;;;24.76;47.60
23589;BME280;11972;48.078;11.876;2023-06-14T18:31:22;95126.56;;;24.41;48.38
23589;BME280;11972;48.078;11.876;2023-06-14T18:35:22;95132.66;;;24.02;50.73
23589;BME280;11972;48.078;11.876;2023-06-14T18:39:23;95130.94;;;23.41;54.69
23589;BME280;11972;48.078;11.876;2023-06-14T18:43:23;95138.72;;;22.56;66.59
23589;BME280;11972;48.078;11.876;2023-06-14T18:47:23;95139.09;;;21.49;75.90
23589;BME280;11972;48.078;11.876;2023-06-14T18:51:23;95155.13;;;20.48;89.04
23589;BME280;11972;48.078;11.876;2023-06-14T18:55:24;95157.22;;;19.75;96.39
23589;BME280;11972;48.078;11.876;2023-06-14T18:59:25;95161.38;;;19.10;100.00
23589;BME280;11972;48.078;11.876;2023-06-14T19:03:25;95165.38;;;18.62;100.00
23589;BME280;11972;48.078;11.876;2023-06-14T19:07:25;95164.53;;;18.16;100.00
23589;BME280;11972;48.078;11.876;2023-06-14T19:11:26;95170.66;;;17.76;100.00
23589;BME280;11972;48.078;11.876;2023-06-14T19:15:26;95165.94;;;17.43;100.00
23589;BME280;11972;48.078;11.876;2023-06-14T19:19:27;95169.06;;;17.05;100.00
23589;BME280;11972;48.078;11.876;2023-06-14T19:23:27;95181.28;;;16.71;100.00
23589;BME280;11972;48.078;11.876;2023-06-14T19:27:28;95184.56;;;16.43;100.00
23589;BME280;11972;48.078;11.876;2023-06-14T19:31:28;95189.22;;;16.17;100.00
23589;BME280;11972;48.078;11.876;2023-06-14T19:35:28;95199.16;;;15.92;100.00
23589;BME280;11972;48.078;11.876;2023-06-14T19:39:29;95201.88;;;15.67;100.00
23589;BME280;11972;48.078;11.876;2023-06-14T19:43:30;95205.28;;;15.30;100.00
23589;BME280;11972;48.078;11.876;2023-06-14T19:47:30;95209.16;;;15.09;100.00
23589;BME280;11972;48.078;11.876;2023-06-14T19:51:31;95215.38;;;15.03;100.00
23589;BME280;11972;48.078;11.876;2023-06-14T19:55:32;95216.44;;;14.96;100.00
23589;BME280;11972;48.078;11.876;2023-06-14T19:59:32;95221.00;;;14.88;100.00
23589;BME280;11972;48.078;11.876;2023-06-14T20:03:32;95223.91;;;14.80;100.00
23589;BME280;11972;48.078;11.876;2023-06-14T20:07:33;95226.03;;;14.72;100.00
23589;BME280;11972;48.078;11.876;2023-06-14T20:11:33;95226.44;;;14.69;100.00
23589;BME280;11972;48.078;11.876;2023-06-14T20:15:33;95223.84;;;14.62;100.00
23589;BME280;11972;48.078;11.876;2023-06-14T20:19:34;95222.03;;;14.56;100.00
23589;BME280;11972;48.078;11.876;2023-06-14T20:23:34;95226.75;;;14.47;100.00
23589;BME280;11972;48.078;11.876;2023-06-14T20:27:35;95222.94;;;14.36;100.00
23589;BME280;11972;48.078;11.876;2023-06-14T20:31:35;95225.84;;;14.28;100.00
23589;BME280;11972;48.078;11.876;2023-06-14T20:35:36;95218.94;;;14.21;100.00
23589;BME280;11972;48.078;11.876;2023-06-14T20:39:37;95227.16;;;14.12;100.00
23589;BME280;11972;48.078;11.876;2023-06-14T20:43:37;95222.88;;;14.05;100.00
23589;BME280;11972;48.078;11.876;2023-06-14T20:47:37;95224.16;;;13.96;100.00
23589;BME280;11972;48.078;11.876;2023-06-14T20:51:37;95237.44;;;13.82;100.00
23589;BME280;11972;48.078;11.876;2023-06-14T20:55:38;95230.97;;;13.65;100.00
23589;BME280;11972;48.078;11.876;2023-06-14T20:59:39;95228.97;;;13.54;100.00
23589;BME280;11972;48.078;11.876;2023-06-14T21:03:39;95234.28;;;13.40;100.00
23589;BME280;11972;48.078;11.876;2023-06-14T21:07:40;95232.28;;;13.29;100.00